Time;durP1;ratioP1;P1;durP2;ratioP2;P2;SDS_P1;SDS_P2;PMS_P1;PMS_P2;Temp;Humidity;BMP_temperature;BMP_pressure;BME280_temperature;BME280_humidity;BME280_pressure;Samples;Min_cycle;Max_cycle;Signal;HPM_P1;HPM_P2
2021/06/06 00:00:50;;;;;;;;;;;;;;;23.84;50.10;100913.34;5050252;28;19917;-80
2021/06/06 00:03:36;;;;;;;;;;;;;;;23.84;50.04;100915.34;5048262;28;19916;-82
2021/06/06 00:06:25;;;;;;;;;;;;;;;23.85;49.75;100914.94;5049054;28;19920;-82
2021/06/06 00:09:14;;;;;;;;;;;;;;;23.85;49.65;100922.47;5050851;28;19916;-82
2021/06/06 00:11:58;;;;;;;;;;;;;;;23.87;49.50;100922.88;5046132;28;19913;-79
2021/06/06 00:14:42;;;;;;;;;;;;;;;23.88;49.45;100921.66;5046730;28;19913;-80
2021/06/06 00:17:27;;;;;;;;;;;;;;;23.91;49.44;100922.88;5049521;28;19912;-81
2021/06/06 00:20:12;;;;;;;;;;;;;;;23.91;49.38;100926.44;5043783;28;19913;-82
2021/06/06 00:22:57;;;;;;;;;;;;;;;23.87;49.65;100923.66;5048837;28;19913;-83
2021/06/06 00:25:42;;;;;;;;;;;;;;;23.83;49.72;100922.06;5053121;28;19921;-81
2021/06/06 00:28:46;;;;;;;;;;;;;;;23.79;49.66;100910.97;5050914;28;19913;-83
2021/06/06 00:31:31;;;;;;;;;;;;;;;23.76;49.88;100911.78;5047632;28;19916;-83
2021/06/06 00:34:15;;;;;;;;;;;;;;;23.75;49.86;100899.09;5052791;28;19913;-83
2021/06/06 00:37:00;;;;;;;;;;;;;;;23.71;49.63;100908.63;5049470;28;20105;-82
2021/06/06 00:39:50;;;;;;;;;;;;;;;23.49;49.76;100907.88;5036509;28;19913;-83
2021/06/06 00:42:35;;;;;;;;;;;;;;;23.39;49.63;100903.09;5054758;28;19913;-83
2021/06/06 00:48:29;;;;;;;;;;;;;;;23.35;49.56;100899.53;5037961;28;20308;-82
2021/06/06 00:51:21;;;;;;;;;;;;;;;23.37;49.78;100905.44;5032848;28;19913;-79
2021/06/06 00:54:07;;;;;;;;;;;;;;;23.41;49.33;100907.06;5036386;28;19912;-82
2021/06/06 00:57:14;;;;;;;;;;;;;;;23.44;49.16;100911.00;5037709;28;20396;-82
2021/06/06 01:00:23;;;;;;;;;;;;;;;23.43;48.58;100920.53;5045454;28;20488;-81
2021/06/06 01:03:12;;;;;;;;;;;;;;;23.46;48.68;100917.00;5034235;28;19912;-82
2021/06/06 01:05:59;;;;;;;;;;;;;;;23.53;48.51;100916.97;5031595;28;19912;-80
2021/06/06 01:09:02;;;;;;;;;;;;;;;23.50;48.40;100919.75;5029899;28;19917;-83
2021/06/06 01:12:14;;;;;;;;;;;;;;;23.50;49.02;100909.44;5046644;28;20467;-83
2021/06/06 01:15:04;;;;;;;;;;;;;;;23.48;48.87;100913.81;5036367;28;20531;-81
2021/06/06 01:18:34;;;;;;;;;;;;;;;23.48;49.13;100916.59;5043885;28;19913;-81
2021/06/06 01:21:55;;;;;;;;;;;;;;;23.47;49.00;100929.66;5042596;28;19916;-82
2021/06/06 01:24:49;;;;;;;;;;;;;;;23.43;49.03;100931.63;5041419;28;19916;-81
2021/06/06 01:30:44;;;;;;;;;;;;;;;23.09;48.97;100925.69;5047353;28;19913;-85
2021/06/06 01:33:46;;;;;;;;;;;;;;;23.06;48.88;100920.91;5055787;28;19912;-84
2021/06/06 01:36:34;;;;;;;;;;;;;;;23.16;48.58;100920.13;5037753;28;20308;-81
2021/06/06 01:39:45;;;;;;;;;;;;;;;23.21;48.67;100925.28;5044208;28;19913;-85
2021/06/06 01:45:43;;;;;;;;;;;;;;;23.37;48.25;100922.91;5032967;28;19917;-81
2021/06/06 01:48:28;;;;;;;;;;;;;;;23.45;48.38;100926.50;5046387;28;19913;-83
2021/06/06 01:51:29;;;;;;;;;;;;;;;23.50;48.35;100919.75;5028297;28;19913;-84
2021/06/06 01:54:15;;;;;;;;;;;;;;;23.56;48.05;100916.19;5049904;28;20305;-81
2021/06/06 01:57:01;;;;;;;;;;;;;;;23.60;48.05;100928.09;5049055;28;19971;-82
2021/06/06 01:59:50;;;;;;;;;;;;;;;23.67;47.87;100925.28;5032306;28;19916;-83
2021/06/06 02:02:35;;;;;;;;;;;;;;;23.60;47.36;100922.53;5033124;28;20381;-82
2021/06/06 02:05:21;;;;;;;;;;;;;;;23.48;46.98;100922.13;5047193;28;19916;-83
2021/06/06 02:08:26;;;;;;;;;;;;;;;23.18;48.88;100919.72;5028225;28;20381;-80
2021/06/06 02:11:15;;;;;;;;;;;;;;;23.16;49.44;100917.34;5032035;28;19913;-80
2021/06/06 02:14:04;;;;;;;;;;;;;;;23.17;49.50;100915.38;5043301;28;19920;-83
2021/06/06 02:16:56;;;;;;;;;;;;;;;23.08;48.97;100914.97;5043565;28;19913;-81
2021/06/06 02:19:54;;;;;;;;;;;;;;;22.99;49.94;100915.38;5054195;28;19936;-82
2021/06/06 02:22:45;;;;;;;;;;;;;;;23.25;49.13;100919.75;5061700;28;19912;-82
2021/06/06 02:25:32;;;;;;;;;;;;;;;23.07;48.83;100918.94;5047098;28;19916;-84
2021/06/06 02:28:31;;;;;;;;;;;;;;;22.81;49.70;100914.53;5041049;28;19913;-83
2021/06/06 02:34:48;;;;;;;;;;;;;;;23.16;49.75;100909.03;5046380;28;19912;-83
2021/06/06 02:37:41;;;;;;;;;;;;;;;23.30;49.50;100911.81;5033020;28;19912;-81
2021/06/06 02:40:38;;;;;;;;;;;;;;;23.47;49.25;100915.78;5037424;28;19927;-82
2021/06/06 02:43:29;;;;;;;;;;;;;;;23.47;49.33;100913.00;5036414;28;20321;-82
2021/06/06 02:46:18;;;;;;;;;;;;;;;23.59;49.19;100901.50;5053174;28;19917;-81
2021/06/06 02:49:06;;;;;;;;;;;;;;;23.65;49.16;100908.25;5048319;28;19913;-81
2021/06/06 02:52:15;;;;;;;;;;;;;;;23.71;48.93;100914.97;5043086;28;19913;-82
2021/06/06 02:55:08;;;;;;;;;;;;;;;23.70;48.79;100918.94;5050282;28;19913;-80
2021/06/06 02:58:18;;;;;;;;;;;;;;;23.63;49.22;100915.38;5033352;28;19913;-80
2021/06/06 03:01:14;;;;;;;;;;;;;;;23.41;49.71;100918.16;5051442;28;19913;-79
2021/06/06 03:04:01;;;;;;;;;;;;;;;23.37;49.73;100911.78;5057286;28;19916;-77
2021/06/06 03:13:28;;;;;;;;;;;;;;;23.52;49.63;100903.50;5049538;28;19916;-82
2021/06/06 03:16:14;;;;;;;;;;;;;;;23.49;49.90;100907.88;5050600;28;19921;-82
2021/06/06 03:19:07;;;;;;;;;;;;;;;23.58;49.49;100905.47;5030868;28;19913;-82
2021/06/06 03:21:54;;;;;;;;;;;;;;;23.36;50.53;100903.88;5040823;28;19913;-84
2021/06/06 03:24:42;;;;;;;;;;;;;;;23.35;50.10;100896.75;5058524;28;19935;-81
2021/06/06 03:27:34;;;;;;;;;;;;;;;23.37;50.04;100891.56;5035131;28;19913;-81
2021/06/06 03:30:27;;;;;;;;;;;;;;;23.50;49.71;100892.78;5055901;28;19913;-83
2021/06/06 03:33:14;;;;;;;;;;;;;;;23.57;49.53;100892.78;5033760;28;19917;-83
2021/06/06 03:36:00;;;;;;;;;;;;;;;23.61;49.70;100898.34;5051103;28;19921;-82
2021/06/06 03:38:46;;;;;;;;;;;;;;;23.62;49.54;100891.59;5038883;28;19913;-83
2021/06/06 03:41:31;;;;;;;;;;;;;;;23.66;49.65;100884.03;5037056;28;19921;-82
2021/06/06 03:44:16;;;;;;;;;;;;;;;23.66;49.65;100887.63;5048599;28;20365;-80
2021/06/06 03:47:02;;;;;;;;;;;;;;;23.60;49.57;100885.63;5040479;28;20606;-81
2021/06/06 03:49:49;;;;;;;;;;;;;;;23.57;49.66;100892.00;5037653;28;19913;-83
2021/06/06 03:52:34;;;;;;;;;;;;;;;23.55;49.69;100886.03;5047710;28;19913;-81
2021/06/06 03:55:22;;;;;;;;;;;;;;;23.52;49.88;100884.06;5038411;28;20293;-83
2021/06/06 03:58:10;;;;;;;;;;;;;;;23.49;49.80;100882.09;5049131;28;19913;-79
2021/06/06 04:00:56;;;;;;;;;;;;;;;23.48;49.74;100883.28;5033048;28;20409;-79
2021/06/06 04:03:41;;;;;;;;;;;;;;;23.49;49.77;100871.78;5032568;28;20304;-80
2021/06/06 04:06:29;;;;;;;;;;;;;;;23.45;50.08;100871.00;5055201;28;20381;-80
2021/06/06 04:09:14;;;;;;;;;;;;;;;23.51;49.77;100871.38;5045491;28;20285;-80
2021/06/06 04:11:59;;;;;;;;;;;;;;;23.43;50.39;100882.44;5037070;28;19913;-80
2021/06/06 04:14:47;;;;;;;;;;;;;;;23.44;50.18;100878.50;5033146;28;19912;-79
2021/06/06 04:17:31;;;;;;;;;;;;;;;23.50;50.15;100876.13;5047549;28;19913;-81
2021/06/06 04:20:17;;;;;;;;;;;;;;;23.39;50.42;100884.44;5045566;28;19912;-81
2021/06/06 04:23:02;;;;;;;;;;;;;;;23.47;50.22;100881.72;5049130;28;19917;-82
2021/06/06 04:26:05;;;;;;;;;;;;;;;23.39;50.72;100886.44;5031515;28;20425;-82
2021/06/06 04:28:53;;;;;;;;;;;;;;;23.41;50.75;100889.59;5033012;28;19913;-81
2021/06/06 04:31:42;;;;;;;;;;;;;;;23.37;50.81;100889.59;5038413;28;19920;-80
2021/06/06 04:37:38;;;;;;;;;;;;;;;23.43;50.69;100903.88;5038617;28;20396;-81
2021/06/06 04:40:26;;;;;;;;;;;;;;;23.43;50.67;100906.66;5039295;28;20285;-81
2021/06/06 04:43:31;;;;;;;;;;;;;;;23.42;50.58;100910.59;5043878;28;19912;-80
2021/06/06 04:46:18;;;;;;;;;;;;;;;23.38;50.62;100907.84;5032879;28;19917;-81
2021/06/06 04:49:22;;;;;;;;;;;;;;;23.38;50.81;100907.84;5047712;28;19936;-81
2021/06/06 04:52:08;;;;;;;;;;;;;;;23.43;50.63;100909.41;5050265;28;19912;-82
2021/06/06 04:55:01;;;;;;;;;;;;;;;23.48;50.80;100905.47;5037398;28;19913;-82
2021/06/06 04:57:46;;;;;;;;;;;;;;;23.52;50.56;100906.28;5052121;28;19913;-81
2021/06/06 05:00:34;;;;;;;;;;;;;;;23.50;50.37;100919.75;5049356;28;19912;-80
2021/06/06 05:03:21;;;;;;;;;;;;;;;23.54;50.49;100913.00;5031767;28;19938;-82
2021/06/06 05:06:07;;;;;;;;;;;;;;;23.55;50.29;100906.28;5032798;28;20316;-82
2021/06/06 05:08:53;;;;;;;;;;;;;;;23.60;50.42;100918.97;5044525;28;19913;-80
2021/06/06 05:11:41;;;;;;;;;;;;;;;23.42;50.70;100908.63;5042833;28;19913;-83
2021/06/06 05:14:27;;;;;;;;;;;;;;;23.16;51.59;100906.25;5034850;28;19912;-82
2021/06/06 05:17:15;;;;;;;;;;;;;;;22.99;52.09;100912.59;5030606;28;19912;-80
2021/06/06 05:20:30;;;;;;;;;;;;;;;23.22;51.59;100918.53;5046483;28;19920;-78
2021/06/06 05:23:17;;;;;;;;;;;;;;;23.36;51.17;100918.56;5048068;28;19913;-80
2021/06/06 05:26:03;;;;;;;;;;;;;;;23.50;50.69;100925.31;5047255;28;19925;-81
2021/06/06 05:28:48;;;;;;;;;;;;;;;23.58;50.53;100916.56;5047700;28;19921;-80
2021/06/06 05:31:51;;;;;;;;;;;;;;;23.56;50.69;100924.53;5047627;28;19916;-78
2021/06/06 05:34:37;;;;;;;;;;;;;;;23.58;50.52;100927.69;5043026;28;19913;-82
2021/06/06 05:37:22;;;;;;;;;;;;;;;23.57;50.74;100925.31;5048362;28;20384;-80
2021/06/06 05:40:07;;;;;;;;;;;;;;;23.56;50.31;100924.53;5050673;28;19913;-84
2021/06/06 05:42:51;;;;;;;;;;;;;;;23.54;50.42;100923.31;5054925;28;19912;-80
2021/06/06 05:45:36;;;;;;;;;;;;;;;23.55;50.29;100924.91;5055899;28;19917;-80
2021/06/06 05:51:24;;;;;;;;;;;;;;;23.57;50.21;100920.53;5051768;28;19912;-82
2021/06/06 05:54:20;;;;;;;;;;;;;;;23.58;50.04;100922.13;5048142;28;19912;-83
2021/06/06 05:57:04;;;;;;;;;;;;;;;23.95;49.40;100923.66;5062013;28;19913;-84
2021/06/06 05:59:49;;;;;;;;;;;;;;;24.26;48.66;100926.34;5064434;28;19912;-82
2021/06/06 06:02:34;;;;;;;;;;;;;;;24.29;48.25;100919.19;5052553;28;19912;-84
2021/06/06 06:05:24;;;;;;;;;;;;;;;23.26;49.67;100922.09;5058371;28;19917;-84
2021/06/06 06:08:34;;;;;;;;;;;;;;;23.18;50.67;100922.50;5050384;28;20381;-83
2021/06/06 06:11:23;;;;;;;;;;;;;;;23.55;49.76;100922.13;5061585;28;20385;-84
2021/06/06 06:17:13;;;;;;;;;;;;;;;23.55;49.91;100924.91;5060471;28;19913;-86
2021/06/06 06:19:57;;;;;;;;;;;;;;;23.63;49.84;100929.25;5057656;28;19913;-83
2021/06/06 06:22:43;;;;;;;;;;;;;;;23.37;50.68;100927.66;5054397;28;19920;-88
2021/06/06 06:25:28;;;;;;;;;;;;;;;22.50;52.69;100927.13;5057237;28;19917;-87
2021/06/06 06:28:13;;;;;;;;;;;;;;;22.70;53.03;100925.59;5047395;28;19916;-85
2021/06/06 06:31:16;;;;;;;;;;;;;;;22.65;53.26;100934.28;5051451;28;19916;-83
2021/06/06 06:34:14;;;;;;;;;;;;;;;22.72;53.14;100930.75;5034757;28;19928;-85
2021/06/06 06:36:59;;;;;;;;;;;;;;;22.70;53.37;100933.91;5050386;28;19913;-86
2021/06/06 06:39:45;;;;;;;;;;;;;;;22.64;53.27;100929.13;5059341;28;20396;-85
2021/06/06 06:42:49;;;;;;;;;;;;;;;23.08;52.72;100929.63;5051601;28;19912;-85
2021/06/06 06:45:37;;;;;;;;;;;;;;;23.56;50.89;100934.84;5048929;28;19917;-88
2021/06/06 06:48:30;;;;;;;;;;;;;;;24.02;50.02;100937.53;5072161;28;19921;-90
2021/06/06 06:51:16;;;;;;;;;;;;;;;24.23;49.52;100941.03;5057659;28;19920;-84
2021/06/06 06:54:03;;;;;;;;;;;;;;;24.16;49.50;100941.06;5051460;28;19913;-89
2021/06/06 06:56:47;;;;;;;;;;;;;;;24.28;49.31;100942.59;5054563;28;19913;-81
2021/06/06 06:59:33;;;;;;;;;;;;;;;24.39;48.78;100943.38;5053857;28;19917;-83
2021/06/06 07:02:17;;;;;;;;;;;;;;;24.41;49.05;100929.88;5051732;28;19913;-81
2021/06/06 07:05:03;;;;;;;;;;;;;;;23.84;50.19;100930.03;5055968;28;19916;-85
2021/06/06 07:07:48;;;;;;;;;;;;;;;23.98;50.22;100933.94;5053859;28;20338;-87
2021/06/06 07:10:34;;;;;;;;;;;;;;;23.82;51.17;100937.94;5065351;28;19913;-86
2021/06/06 07:13:19;;;;;;;;;;;;;;;23.65;51.88;100949.91;5061757;28;20397;-85
2021/06/06 07:16:05;;;;;;;;;;;;;;;23.83;51.61;100941.53;5058319;28;19913;-86
2021/06/06 07:18:53;;;;;;;;;;;;;;;23.75;51.41;100949.09;5038816;28;19912;-89
2021/06/06 07:21:37;;;;;;;;;;;;;;;23.77;51.93;100952.25;5059650;28;20376;-83
2021/06/06 07:24:23;;;;;;;;;;;;;;;23.96;51.34;100953.81;5057683;28;19916;-85
2021/06/06 07:27:07;;;;;;;;;;;;;;;23.90;51.10;100949.06;5060892;28;19913;-84
2021/06/06 07:29:53;;;;;;;;;;;;;;;24.02;50.81;100951.41;5060022;28;20385;-87
2021/06/06 07:32:39;;;;;;;;;;;;;;;23.85;51.89;100950.25;5044717;28;19912;-87
2021/06/06 07:35:24;;;;;;;;;;;;;;;23.99;50.51;100952.19;5060483;28;19913;-86
2021/06/06 07:38:10;;;;;;;;;;;;;;;23.91;50.73;100956.19;5056529;28;19916;-88
2021/06/06 07:41:00;;;;;;;;;;;;;;;24.10;50.09;100958.53;5047202;28;19913;-85
2021/06/06 07:43:46;;;;;;;;;;;;;;;23.64;51.67;100953.06;5051098;28;19913;-89
2021/06/06 07:46:33;;;;;;;;;;;;;;;23.46;52.75;100955.06;5054254;28;19917;-86
2021/06/06 07:49:25;;;;;;;;;;;;;;;23.25;52.78;100948.28;5054765;28;19913;-85
2021/06/06 07:52:36;;;;;;;;;;;;;;;23.40;51.83;100954.63;5058977;28;19912;-85
2021/06/06 07:55:24;;;;;;;;;;;;;;;23.41;52.16;100951.47;5054180;28;19912;-84
2021/06/06 07:58:17;;;;;;;;;;;;;;;23.49;52.16;100955.06;5055508;28;19913;-84
2021/06/06 08:01:03;;;;;;;;;;;;;;;23.69;51.50;100949.88;5055372;28;19913;-82
2021/06/06 08:03:49;;;;;;;;;;;;;;;23.80;51.43;100948.69;5053090;28;19916;-82
2021/06/06 08:06:34;;;;;;;;;;;;;;;23.75;50.62;100954.66;5052121;28;19921;-82
2021/06/06 08:09:19;;;;;;;;;;;;;;;23.91;49.67;100945.09;5046173;28;20312;-84
2021/06/06 08:15:07;;;;;;;;;;;;;;;24.15;48.17;100944.22;5052352;28;20297;-83
2021/06/06 08:18:12;;;;;;;;;;;;;;;24.11;48.92;100946.22;5046668;28;19913;-86
2021/06/06 08:21:17;;;;;;;;;;;;;;;24.29;48.48;100938.63;5049602;28;19913;-84
2021/06/06 08:24:02;;;;;;;;;;;;;;;24.25;47.85;100944.22;5047430;28;19913;-84
2021/06/06 08:26:49;;;;;;;;;;;;;;;24.36;48.16;100941.41;5046963;28;19917;-84
2021/06/06 08:29:34;;;;;;;;;;;;;;;24.42;47.65;100939.78;5053183;28;19917;-83
2021/06/06 08:32:19;;;;;;;;;;;;;;;24.46;48.46;100940.56;5045233;28;20381;-82
2021/06/06 08:35:05;;;;;;;;;;;;;;;24.46;48.14;100946.13;5028817;28;19917;-81
2021/06/06 08:37:49;;;;;;;;;;;;;;;24.59;47.83;100933.34;5057089;28;19913;-81
2021/06/06 08:40:33;;;;;;;;;;;;;;;24.63;47.58;100936.91;5043206;28;19917;-82
2021/06/06 08:43:19;;;;;;;;;;;;;;;24.52;48.97;100940.94;5044265;28;19913;-83
2021/06/06 08:46:05;;;;;;;;;;;;;;;24.48;49.11;100940.16;5048716;28;19920;-82
2021/06/06 08:48:50;;;;;;;;;;;;;;;24.41;49.14;100942.97;5042002;28;19927;-83
2021/06/06 08:52:01;;;;;;;;;;;;;;;24.44;49.20;100929.03;5043717;28;19913;-82
2021/06/06 08:57:55;;;;;;;;;;;;;;;24.48;49.02;100924.25;5043228;28;19913;-82
2021/06/06 09:00:42;;;;;;;;;;;;;;;24.53;48.82;100929.38;5048236;28;19912;-82
2021/06/06 09:03:28;;;;;;;;;;;;;;;24.51;49.01;100920.69;5044615;28;20384;-82
2021/06/06 09:06:15;;;;;;;;;;;;;;;24.53;48.94;100926.63;5046927;28;19917;-82
2021/06/06 09:09:00;;;;;;;;;;;;;;;24.60;48.64;100928.56;5051807;28;19913;-84
2021/06/06 09:12:06;;;;;;;;;;;;;;;24.48;49.07;100918.69;5043662;28;19913;-84
2021/06/06 09:14:53;;;;;;;;;;;;;;;24.59;48.60;100919.44;5043118;28;19917;-83
2021/06/06 09:17:37;;;;;;;;;;;;;;;24.76;48.19;100919.75;5050096;28;19913;-84
2021/06/06 09:20:33;;;;;;;;;;;;;;;24.70;48.52;100917.38;5049852;28;19913;-85
2021/06/06 09:23:28;;;;;;;;;;;;;;;24.81;47.56;100914.53;5047346;28;19917;-84
2021/06/06 09:26:31;;;;;;;;;;;;;;;24.94;46.97;100914.91;5046844;28;19917;-85
2021/06/06 09:29:16;;;;;;;;;;;;;;;25.08;47.37;100914.78;5044353;28;19913;-86
2021/06/06 09:32:05;;;;;;;;;;;;;;;25.22;46.93;100913.88;5048098;28;19912;-86
2021/06/06 09:34:56;;;;;;;;;;;;;;;25.18;47.02;100905.56;5048826;28;19917;-85
2021/06/06 09:37:45;;;;;;;;;;;;;;;25.21;47.18;100912.28;5044656;28;20361;-85
2021/06/06 09:40:34;;;;;;;;;;;;;;;24.98;47.83;100910.09;5045916;28;19912;-86
2021/06/06 09:43:38;;;;;;;;;;;;;;;25.00;47.31;100905.69;5046296;28;19913;-86
2021/06/06 09:46:22;;;;;;;;;;;;;;;25.00;47.33;100902.13;5047443;28;20305;-84
2021/06/06 09:49:25;;;;;;;;;;;;;;;24.99;47.58;100904.09;5047693;28;19913;-82
2021/06/06 09:52:10;;;;;;;;;;;;;;;24.94;47.75;100910.09;5044528;28;19913;-85
2021/06/06 09:54:55;;;;;;;;;;;;;;;25.02;47.62;100900.53;5048048;28;19917;-85
2021/06/06 09:57:43;;;;;;;;;;;;;;;25.12;47.45;100891.28;5048223;28;19913;-85
2021/06/06 10:07:04;;;;;;;;;;;;;;;25.20;47.18;100883.66;5044260;28;20300;-84
2021/06/06 10:09:50;;;;;;;;;;;;;;;25.30;46.93;100882.78;5047161;28;19912;-82
2021/06/06 10:12:40;;;;;;;;;;;;;;;25.45;46.35;100877.88;5044696;28;19912;-83
2021/06/06 10:15:27;;;;;;;;;;;;;;;25.63;45.79;100874.94;5046902;28;19913;-86
2021/06/06 10:18:18;;;;;;;;;;;;;;;25.26;46.99;100872.88;5046234;28;19913;-83
2021/06/06 10:21:02;;;;;;;;;;;;;;;25.45;46.64;100873.09;5044926;28;19913;-83
2021/06/06 10:23:55;;;;;;;;;;;;;;;25.39;46.81;100865.63;5041543;28;19913;-84
2021/06/06 10:26:49;;;;;;;;;;;;;;;25.52;46.61;100864.66;5045879;28;19916;-82
2021/06/06 10:29:39;;;;;;;;;;;;;;;25.69;45.91;100857.38;5042981;28;19913;-81
2021/06/06 10:32:29;;;;;;;;;;;;;;;25.91;44.79;100861.47;5046976;28;20312;-84
2021/06/06 10:35:33;;;;;;;;;;;;;;;26.09;44.58;100854.91;5042796;28;19916;-84
2021/06/06 10:38:20;;;;;;;;;;;;;;;26.12;44.68;100857.63;5047375;28;20148;-84
2021/06/06 10:41:25;;;;;;;;;;;;;;;26.11;44.59;100853.25;5046832;28;19912;-84
2021/06/06 10:47:30;;;;;;;;;;;;;;;25.81;46.01;100847.66;5057157;28;19917;-83
2021/06/06 10:50:22;;;;;;;;;;;;;;;25.58;46.32;100845.56;5060839;28;19913;-85
2021/06/06 10:53:09;;;;;;;;;;;;;;;25.25;47.30;100849.03;5053989;28;19913;-84
2021/06/06 10:56:00;;;;;;;;;;;;;;;25.14;47.67;100841.56;5052333;28;19916;-83
2021/06/06 10:58:44;;;;;;;;;;;;;;;25.07;48.23;100835.28;5056666;28;20352;-80
2021/06/06 11:01:45;;;;;;;;;;;;;;;25.01;48.59;100834.13;5053266;28;19912;-85
2021/06/06 11:04:45;;;;;;;;;;;;;;;24.99;49.09;100834.53;5049246;28;19912;-85
2021/06/06 11:07:31;;;;;;;;;;;;;;;25.10;48.98;100826.09;5056088;28;19917;-82
2021/06/06 11:10:15;;;;;;;;;;;;;;;25.22;48.79;100828.38;5050585;28;19913;-84
2021/06/06 11:13:10;;;;;;;;;;;;;;;25.12;49.14;100826.47;5047510;28;19913;-82
2021/06/06 11:16:03;;;;;;;;;;;;;;;25.13;49.67;100819.72;5055524;28;19916;-82
2021/06/06 11:18:50;;;;;;;;;;;;;;;25.19;49.02;100817.28;5048708;28;19916;-81
2021/06/06 11:21:40;;;;;;;;;;;;;;;25.14;49.17;100815.75;5049696;28;19916;-81
2021/06/06 11:24:30;;;;;;;;;;;;;;;25.44;46.89;100806.69;5048740;28;19913;-81
2021/06/06 11:27:36;;;;;;;;;;;;;;;25.39;47.78;100791.22;5048641;28;19936;-82
2021/06/06 11:30:21;;;;;;;;;;;;;;;25.53;47.09;100793.06;5046559;28;19917;-82
2021/06/06 11:36:26;;;;;;;;;;;;;;;25.87;45.08;100784.69;5048997;28;20539;-84
2021/06/06 11:39:31;;;;;;;;;;;;;;;25.98;43.89;100777.00;5054564;28;19913;-83
2021/06/06 11:42:16;;;;;;;;;;;;;;;26.16;43.60;100774.75;5052094;28;19912;-83
2021/06/06 11:45:06;;;;;;;;;;;;;;;26.27;43.00;100766.25;5058068;28;19913;-81
2021/06/06 11:47:56;;;;;;;;;;;;;;;26.29;43.33;100766.63;5053689;28;19913;-81
2021/06/06 11:50:48;;;;;;;;;;;;;;;26.10;44.24;100758.94;5049906;28;20373;-85
2021/06/06 11:53:35;;;;;;;;;;;;;;;25.81;44.76;100748.16;5048845;28;19913;-82
2021/06/06 11:56:37;;;;;;;;;;;;;;;25.66;45.44;100757.91;5049008;28;20377;-82
2021/06/06 11:59:40;;;;;;;;;;;;;;;25.58;45.77;100752.84;5051414;28;20293;-83
2021/06/06 12:02:27;;;;;;;;;;;;;;;25.59;45.33;100752.44;5053909;28;19916;-83
2021/06/06 12:05:26;;;;;;;;;;;;;;;25.68;45.72;100746.34;5048862;28;19916;-84
2021/06/06 12:08:11;;;;;;;;;;;;;;;25.66;45.82;100754.31;5050910;28;19912;-82
2021/06/06 12:10:57;;;;;;;;;;;;;;;25.85;44.62;100743.31;5034772;28;20381;-83
2021/06/06 12:13:44;;;;;;;;;;;;;;;25.78;44.54;100739.84;5042805;28;19912;-81
2021/06/06 12:16:29;;;;;;;;;;;;;;;25.95;43.51;100736.84;5047890;28;19912;-83
2021/06/06 12:19:33;;;;;;;;;;;;;;;26.05;43.94;100739.88;5045202;28;20344;-83
2021/06/06 12:22:40;;;;;;;;;;;;;;;25.75;45.21;100732.34;5046518;28;19921;-86
2021/06/06 12:25:43;;;;;;;;;;;;;;;25.55;45.63;100727.38;5061413;28;19921;-84
2021/06/06 12:28:46;;;;;;;;;;;;;;;25.53;45.89;100732.56;5048881;28;19912;-86
2021/06/06 12:31:33;;;;;;;;;;;;;;;25.59;45.43;100727.38;5035732;28;20528;-82
2021/06/06 12:34:26;;;;;;;;;;;;;;;25.70;45.26;100730.03;5055232;28;19920;-85
2021/06/06 12:37:15;;;;;;;;;;;;;;;25.70;45.47;100724.44;5055147;28;19913;-84
2021/06/06 12:40:01;;;;;;;;;;;;;;;25.67;45.32;100722.47;5057346;28;19913;-84
2021/06/06 12:45:49;;;;;;;;;;;;;;;25.44;46.15;100735.06;5053418;28;19917;-83
2021/06/06 12:48:35;;;;;;;;;;;;;;;25.31;47.10;100730.44;5044649;28;20404;-81
2021/06/06 12:51:29;;;;;;;;;;;;;;;25.30;46.78;100734.44;5045192;28;19912;-83
2021/06/06 12:54:32;;;;;;;;;;;;;;;25.23;46.49;100735.31;5052781;28;19917;-81
2021/06/06 12:57:36;;;;;;;;;;;;;;;25.06;47.84;100736.28;5050345;28;19913;-84
2021/06/06 13:00:37;;;;;;;;;;;;;;;24.94;48.53;100734.03;5058555;28;19920;-84
2021/06/06 13:03:52;;;;;;;;;;;;;;;24.89;49.04;100731.72;5049621;28;19913;-82
2021/06/06 13:06:39;;;;;;;;;;;;;;;24.80;49.58;100728.56;5036547;28;19916;-82
2021/06/06 13:09:26;;;;;;;;;;;;;;;24.76;49.86;100744.50;5049612;28;19913;-83
2021/06/06 13:12:29;;;;;;;;;;;;;;;24.83;50.35;100783.38;5047467;28;19912;-81
2021/06/06 13:15:19;;;;;;;;;;;;;;;24.64;51.61;100793.84;5053327;28;19932;-81
2021/06/06 13:18:05;;;;;;;;;;;;;;;24.01;55.04;100783.13;5049058;28;19921;-84
2021/06/06 13:20:57;;;;;;;;;;;;;;;23.67;54.94;100760.69;5047989;28;19913;-81
2021/06/06 13:23:44;;;;;;;;;;;;;;;23.88;55.74;100775.25;5051479;28;20416;-80
2021/06/06 13:26:35;;;;;;;;;;;;;;;23.94;55.61;100788.72;5047357;28;20381;-81
2021/06/06 13:29:32;;;;;;;;;;;;;;;23.93;55.91;100798.22;5048197;28;19912;-83
2021/06/06 13:32:16;;;;;;;;;;;;;;;23.84;56.19;100802.25;5048528;28;19913;-81
2021/06/06 14:01:48;;;;;;;;;;;;;;;23.60;59.11;100760.69;5052312;28;19916;-85
2021/06/06 14:04:33;;;;;;;;;;;;;;;23.75;59.06;100770.56;5055113;28;19913;-84
2021/06/06 14:07:17;;;;;;;;;;;;;;;23.82;57.89;100760.19;5039852;28;19916;-83
2021/06/06 14:10:03;;;;;;;;;;;;;;;23.93;57.85;100770.44;5047118;28;19931;-85
2021/06/06 14:12:49;;;;;;;;;;;;;;;23.96;57.87;100767.69;5044137;28;19912;-84
2021/06/06 14:15:34;;;;;;;;;;;;;;;23.61;60.46;100760.31;5038347;28;19939;-86
2021/06/06 14:18:20;;;;;;;;;;;;;;;23.54;61.89;100768.66;5056985;28;19912;-83
2021/06/06 14:21:06;;;;;;;;;;;;;;;23.77;58.37;100765.41;5040782;28;19912;-84
2021/06/06 14:23:58;;;;;;;;;;;;;;;23.87;58.46;100767.34;5055339;28;19912;-81
2021/06/06 14:26:44;;;;;;;;;;;;;;;23.86;58.57;100766.53;5027412;28;19917;-85
2021/06/06 14:29:33;;;;;;;;;;;;;;;23.95;58.22;100763.31;5032376;28;19916;-84
2021/06/06 14:32:18;;;;;;;;;;;;;;;23.94;58.73;100755.38;5036173;28;19914;-85
2021/06/06 14:35:03;;;;;;;;;;;;;;;23.99;58.83;100755.75;5037157;28;20392;-82
2021/06/06 14:37:48;;;;;;;;;;;;;;;23.98;58.65;100758.91;5042436;28;19916;-82
2021/06/06 14:40:36;;;;;;;;;;;;;;;23.74;60.06;100755.06;5037036;28;19913;-82
2021/06/06 14:43:21;;;;;;;;;;;;;;;23.71;59.49;100742.81;5034296;28;19912;-81
2021/06/06 14:46:06;;;;;;;;;;;;;;;23.81;58.70;100730.06;5036727;28;19920;-82
2021/06/06 14:48:51;;;;;;;;;;;;;;;23.81;58.98;100741.16;5032429;28;19913;-82
2021/06/06 14:51:38;;;;;;;;;;;;;;;23.66;60.50;100753.53;5038034;28;19913;-83
2021/06/06 14:54:24;;;;;;;;;;;;;;;23.71;60.23;100748.34;5023740;28;19913;-82
2021/06/06 14:57:10;;;;;;;;;;;;;;;23.72;61.01;100733.25;5031922;28;19913;-81
2021/06/06 14:59:54;;;;;;;;;;;;;;;23.51;63.55;100730.59;5029076;28;19913;-84
2021/06/06 15:02:39;;;;;;;;;;;;;;;23.03;65.64;100736.63;5024523;28;19913;-81
2021/06/06 15:05:25;;;;;;;;;;;;;;;23.13;65.24;100739.78;5034677;28;19921;-84
2021/06/06 15:08:11;;;;;;;;;;;;;;;23.33;63.56;100733.38;5041806;28;19916;-85
2021/06/06 15:10:58;;;;;;;;;;;;;;;23.50;62.28;100719.88;5017510;28;19917;-84
2021/06/06 15:13:47;;;;;;;;;;;;;;;23.61;62.16;100715.88;5026099;28;20524;-80
2021/06/06 15:16:34;;;;;;;;;;;;;;;23.56;62.79;100718.28;5025395;28;19913;-82
2021/06/06 15:19:19;;;;;;;;;;;;;;;23.50;62.72;100717.91;5022975;28;19912;-84
2021/06/06 15:22:04;;;;;;;;;;;;;;;23.52;62.50;100720.28;5033983;28;20637;-83
2021/06/06 15:24:49;;;;;;;;;;;;;;;23.58;61.78;100724.19;5024189;28;19913;-82
2021/06/06 15:27:35;;;;;;;;;;;;;;;23.55;62.15;100720.25;5031798;28;19916;-85
2021/06/06 15:30:19;;;;;;;;;;;;;;;23.48;62.51;100723.06;5044537;28;20356;-80
2021/06/06 15:33:08;;;;;;;;;;;;;;;23.07;64.84;100724.72;5035752;28;19920;-82
2021/06/06 15:35:55;;;;;;;;;;;;;;;22.98;65.54;100733.47;5051082;28;19913;-83
2021/06/06 15:38:43;;;;;;;;;;;;;;;22.63;66.87;100745.38;5029343;28;19913;-85
2021/06/06 15:41:28;;;;;;;;;;;;;;;22.74;65.79;100745.41;5040961;28;19920;-87
2021/06/06 15:44:14;;;;;;;;;;;;;;;22.73;65.18;100741.81;5040712;28;19913;-84
2021/06/06 15:47:00;;;;;;;;;;;;;;;22.86;64.96;100742.19;5026479;28;19917;-80
2021/06/06 15:49:45;;;;;;;;;;;;;;;22.86;64.70;100737.44;5027560;28;19916;-83